Terminal Aerodrome Forecast
Issued by NWS

Home | Current Version | Previous Version | Text Only | Print | Product List | Glossary On
Versions: 1 2 3 4 5 6 7 8 9 10 11 12
905
FTUS45 KMSO 052320
TAFSMN
TAF
KSMN 052320Z 0600/0624 VRB03KT P6SM BKN200
     FM060600 19008KT P6SM VCSH BKN090
     FM061200 14005KT P6SM -SHRA OVC050
     FM061700 34010KT P6SM BKN050
      AMD LTD TO CLD VIS AND WIND=

USA.gov is the U.S. government's official web portal to all federal, state and local government web resources and services.